createdAt,value
2023-03-12T00:01:21.780Z,5.70
2023-03-12T00:03:49.153Z,5.70
2023-03-12T00:06:17.420Z,5.71
2023-03-12T00:08:44.099Z,5.69
2023-03-12T00:11:16.503Z,5.69
2023-03-12T00:13:43.493Z,5.70
2023-03-12T00:16:12.358Z,5.70
2023-03-12T00:18:39.268Z,5.70
2023-03-12T00:21:06.478Z,5.71
2023-03-12T00:23:34.066Z,5.71
2023-03-12T00:26:05.522Z,5.71
2023-03-12T00:28:32.408Z,5.70
2023-03-12T00:30:59.028Z,5.70
2023-03-12T00:33:26.570Z,5.72
2023-03-12T00:35:55.785Z,5.71
2023-03-12T00:38:22.946Z,5.71
2023-03-12T00:40:49.797Z,5.70
2023-03-12T00:43:16.446Z,5.70
2023-03-12T00:45:43.155Z,5.71
2023-03-12T00:48:09.856Z,5.71
2023-03-12T00:50:36.610Z,5.71
2023-03-12T00:53:03.684Z,5.72
2023-03-12T00:55:30.846Z,5.72
2023-03-12T00:57:57.653Z,5.71
2023-03-12T01:00:24.499Z,5.72
2023-03-12T01:02:51.190Z,5.71
2023-03-12T01:05:18.087Z,5.72
2023-03-12T01:07:44.769Z,5.71
2023-03-12T01:10:14.330Z,5.72
2023-03-12T01:12:41.706Z,5.71
2023-03-12T01:15:10.383Z,5.71
2023-03-12T01:17:37.072Z,5.70
2023-03-12T01:20:04.155Z,5.71
2023-03-12T01:22:30.740Z,5.70
2023-03-12T01:24:57.537Z,5.72
2023-03-12T01:27:24.317Z,5.70
2023-03-12T01:29:50.991Z,5.71
2023-03-12T01:32:17.863Z,5.72
2023-03-12T01:34:45.069Z,5.72
2023-03-12T01:37:11.697Z,5.71
2023-03-12T01:39:38.654Z,5.72
2023-03-12T01:42:05.873Z,5.74
2023-03-12T01:45:02.341Z,5.73
2023-03-12T01:47:34.042Z,5.72
2023-03-12T01:50:06.163Z,5.72
2023-03-12T01:52:36.689Z,5.71
2023-03-12T01:55:07.884Z,5.70
2023-03-12T01:57:44.430Z,5.71
2023-03-12T02:00:19.150Z,5.72
2023-03-12T02:02:47.270Z,5.70
2023-03-12T02:05:24.655Z,5.71
2023-03-12T02:07:51.383Z,5.68
2023-03-12T02:10:18.023Z,5.67
2023-03-12T02:12:44.770Z,5.66
2023-03-12T02:15:11.780Z,5.67
2023-03-12T02:17:40.419Z,5.65
2023-03-12T02:20:16.309Z,5.64
2023-03-12T02:22:49.842Z,5.64
2023-03-12T02:25:35.488Z,5.63
2023-03-12T02:28:04.396Z,5.63
2023-03-12T02:30:32.049Z,5.64
2023-03-12T02:33:02.451Z,5.65
2023-03-12T02:35:29.200Z,5.65
2023-03-12T02:37:56.918Z,5.66
2023-03-12T02:40:41.858Z,5.66
2023-03-12T02:43:09.763Z,5.67
2023-03-12T02:45:38.024Z,5.65
2023-03-12T02:48:08.544Z,5.62
2023-03-12T02:50:35.559Z,5.60
2023-03-12T02:53:03.005Z,5.60
2023-03-12T02:55:29.631Z,5.61
2023-03-12T02:57:56.292Z,5.61
2023-03-12T03:00:23.344Z,5.62
2023-03-12T03:02:52.301Z,5.62
2023-03-12T03:05:20.461Z,5.64
2023-03-12T03:07:47.432Z,5.63
2023-03-12T03:10:15.580Z,5.65
2023-03-12T03:12:42.321Z,5.66
2023-03-12T03:15:10.055Z,5.66
2023-03-12T03:17:36.839Z,5.66
2023-03-12T03:20:11.008Z,5.68
2023-03-12T03:22:38.274Z,5.68
2023-03-12T03:25:06.476Z,5.68
2023-03-12T03:27:33.503Z,5.70
2023-03-12T03:30:00.203Z,5.71
2023-03-12T03:32:27.561Z,5.69
2023-03-12T03:34:54.218Z,5.66
2023-03-12T03:37:20.956Z,5.65
2023-03-12T03:39:47.722Z,5.65
2023-03-12T03:42:14.480Z,5.67
2023-03-12T03:44:41.990Z,5.67
2023-03-12T03:47:08.757Z,5.69
2023-03-12T03:49:35.410Z,5.69
2023-03-12T03:52:02.327Z,5.71
2023-03-12T03:54:33.942Z,5.71
2023-03-12T03:57:01.214Z,5.73
2023-03-12T03:59:28.067Z,5.76
2023-03-12T04:01:54.790Z,5.78
2023-03-12T04:04:21.653Z,5.81
2023-03-12T04:06:48.689Z,5.84
2023-03-12T04:09:15.568Z,5.89
2023-03-12T04:11:42.437Z,5.93
2023-03-12T04:14:11.622Z,6.00
2023-03-12T04:16:40.778Z,6.05
2023-03-12T04:19:07.461Z,6.08
2023-03-12T04:21:34.434Z,6.12
2023-03-12T04:24:01.054Z,6.17
2023-03-12T04:26:31.568Z,6.21
2023-03-12T04:29:00.652Z,6.26
2023-03-12T04:31:27.300Z,6.29
2023-03-12T04:33:54.277Z,6.38
2023-03-12T04:36:23.773Z,6.42
2023-03-12T04:38:52.345Z,6.46
2023-03-12T04:41:24.193Z,6.50
2023-03-12T04:43:56.768Z,6.55
2023-03-12T04:46:23.831Z,6.57
2023-03-12T04:48:50.860Z,6.64
2023-03-12T04:51:18.088Z,6.69
2023-03-12T04:53:44.905Z,6.74
2023-03-12T04:56:12.966Z,6.77
2023-03-12T04:58:41.126Z,6.80
2023-03-12T05:01:07.852Z,6.86
2023-03-12T05:03:35.444Z,6.89
2023-03-12T05:06:02.317Z,6.94
2023-03-12T05:08:29.412Z,6.98
2023-03-12T05:10:56.882Z,7.03
2023-03-12T05:13:23.574Z,7.07
2023-03-12T05:15:54.505Z,7.10
2023-03-12T05:18:21.819Z,7.15
2023-03-12T05:20:59.049Z,7.19
2023-03-12T05:23:26.165Z,7.22
2023-03-12T05:25:52.977Z,7.24
2023-03-12T05:28:20.237Z,7.27
2023-03-12T05:30:47.170Z,7.30
2023-03-12T05:33:14.415Z,7.35
2023-03-12T05:35:41.101Z,7.37
2023-03-12T05:38:07.933Z,7.40
2023-03-12T05:40:34.563Z,7.42
2023-03-12T05:43:01.399Z,7.46
2023-03-12T05:45:29.435Z,7.48
2023-03-12T05:47:58.797Z,7.50
2023-03-12T05:50:27.772Z,7.53
2023-03-12T05:52:54.589Z,7.55
2023-03-12T05:55:21.373Z,7.58
2023-03-12T05:57:48.164Z,7.61
2023-03-12T06:00:15.593Z,7.65
2023-03-12T06:02:49.136Z,7.67
2023-03-12T06:05:16.058Z,7.71
2023-03-12T06:07:43.027Z,7.73
2023-03-12T06:10:10.673Z,7.76
2023-03-12T06:12:37.326Z,7.78
2023-03-12T06:15:05.376Z,7.82
2023-03-12T06:17:32.489Z,7.84
2023-03-12T06:19:59.474Z,7.86
2023-03-12T06:22:26.690Z,7.88
2023-03-12T06:24:53.669Z,7.92
2023-03-12T06:27:20.505Z,7.94
2023-03-12T06:29:47.312Z,7.96
2023-03-12T06:32:14.343Z,7.99
2023-03-12T06:34:41.185Z,8.00
2023-03-12T06:37:07.890Z,8.02
2023-03-12T06:39:34.761Z,8.04
2023-03-12T06:42:01.414Z,8.07
2023-03-12T06:44:28.104Z,8.08
2023-03-12T06:46:55.232Z,8.11
2023-03-12T06:49:22.333Z,8.12
2023-03-12T06:51:49.049Z,8.12
2023-03-12T06:54:16.021Z,8.16
2023-03-12T06:56:42.650Z,8.17
2023-03-12T06:59:09.385Z,8.19
2023-03-12T07:01:35.993Z,8.20
2023-03-12T07:04:02.719Z,8.23
2023-03-12T07:06:29.315Z,8.23
2023-03-12T07:08:56.035Z,8.26
2023-03-12T07:11:22.681Z,8.29
2023-03-12T07:13:49.394Z,8.47
2023-03-12T07:16:16.169Z,8.51
2023-03-12T07:18:42.983Z,8.48
2023-03-12T07:21:09.559Z,8.41
2023-03-12T07:23:36.278Z,8.38
2023-03-12T07:26:05.363Z,8.32
2023-03-12T07:28:32.110Z,8.25
2023-03-12T07:31:02.881Z,8.24
2023-03-12T07:33:30.038Z,8.20
2023-03-12T07:35:56.884Z,8.24
2023-03-12T07:38:23.787Z,8.39
2023-03-12T07:40:51.973Z,8.45
2023-03-12T07:43:20.469Z,8.44
2023-03-12T07:45:50.797Z,8.52
2023-03-12T07:48:19.795Z,8.57
2023-03-12T07:50:46.539Z,8.68
2023-03-12T07:53:13.252Z,8.61
2023-03-12T07:55:39.941Z,8.52
2023-03-12T07:58:06.864Z,8.39
2023-03-12T08:00:33.657Z,8.47
2023-03-12T08:03:00.450Z,8.69
2023-03-12T08:05:27.317Z,8.72
2023-03-12T08:07:54.430Z,8.61
2023-03-12T08:10:23.513Z,8.66
2023-03-12T08:12:50.395Z,8.78
2023-03-12T08:15:17.212Z,8.63
2023-03-12T08:17:44.195Z,8.73
2023-03-12T08:20:11.867Z,8.99
2023-03-12T08:22:39.142Z,9.19
2023-03-12T08:25:06.504Z,9.24
2023-03-12T08:27:34.013Z,9.20
2023-03-12T08:30:00.734Z,9.38
2023-03-12T08:32:27.485Z,9.32
2023-03-12T08:34:54.196Z,9.35
2023-03-12T08:37:20.886Z,9.46
2023-03-12T08:39:47.544Z,9.62
2023-03-12T08:42:14.222Z,9.66
2023-03-12T08:44:40.929Z,9.90
2023-03-12T08:47:07.610Z,10.18
2023-03-12T08:49:34.356Z,10.23
2023-03-12T08:52:01.188Z,10.16
2023-03-12T08:54:27.874Z,10.33
2023-03-12T08:56:54.567Z,10.44
2023-03-12T08:59:22.400Z,10.46
2023-03-12T09:01:49.375Z,10.46
2023-03-12T09:04:16.643Z,10.41
2023-03-12T09:06:43.499Z,10.41
2023-03-12T09:09:10.199Z,10.21
2023-03-12T09:11:39.738Z,10.07
2023-03-12T09:16:53.865Z,10.21
2023-03-12T09:19:21.081Z,10.69
2023-03-12T09:21:47.741Z,11.15
2023-03-12T09:24:14.483Z,11.48
2023-03-12T09:26:41.231Z,11.69
2023-03-12T09:29:07.823Z,11.42
2023-03-12T09:31:36.337Z,11.48
2023-03-12T09:34:03.719Z,11.41
2023-03-12T09:36:30.898Z,11.27
2023-03-12T09:38:57.499Z,11.29
2023-03-12T09:41:27.885Z,11.30
2023-03-12T09:43:59.103Z,11.51
2023-03-12T09:46:53.844Z,11.92
2023-03-12T09:49:34.342Z,11.26
2023-03-12T09:52:03.604Z,10.93
2023-03-12T09:54:50.002Z,10.64
2023-03-12T09:57:25.242Z,10.82
2023-03-12T09:59:52.488Z,11.19
2023-03-12T10:02:34.161Z,11.74
2023-03-12T10:05:07.220Z,12.07
2023-03-12T10:07:36.479Z,12.05
2023-03-12T10:10:09.014Z,12.10
2023-03-12T10:12:47.420Z,11.93
2023-03-12T10:15:14.222Z,11.73
2023-03-12T10:17:55.996Z,11.76
2023-03-12T10:20:32.737Z,12.02
2023-03-12T10:23:06.784Z,12.18
2023-03-12T10:25:57.802Z,11.95
2023-03-12T10:28:36.654Z,11.66
2023-03-12T10:31:06.617Z,11.40
2023-03-12T10:34:01.867Z,11.23
2023-03-12T10:36:30.094Z,10.85
2023-03-12T10:38:56.716Z,10.63
2023-03-12T10:41:26.286Z,10.45
2023-03-12T10:43:53.030Z,10.37
2023-03-12T10:46:56.215Z,10.44
2023-03-12T10:49:23.890Z,10.93
2023-03-12T10:51:57.860Z,11.36
2023-03-12T10:54:33.838Z,11.62
2023-03-12T10:57:01.116Z,11.71
2023-03-12T10:59:33.724Z,12.11
2023-03-12T11:02:01.704Z,12.53
2023-03-12T11:04:32.263Z,12.47
2023-03-12T11:07:27.739Z,12.52
2023-03-12T11:10:06.589Z,12.52
2023-03-12T11:12:36.037Z,12.45
2023-03-12T11:15:21.972Z,12.94
2023-03-12T11:17:48.865Z,13.39
2023-03-12T11:20:26.221Z,13.68
2023-03-12T11:22:52.888Z,13.66
2023-03-12T11:25:28.234Z,13.59
2023-03-12T11:27:57.183Z,13.56
2023-03-12T11:30:28.758Z,13.43
2023-03-12T11:32:58.113Z,13.42
2023-03-12T11:35:34.201Z,13.40
2023-03-12T11:38:06.585Z,13.32
2023-03-12T11:40:52.024Z,13.00
2023-03-12T11:43:43.992Z,13.03
2023-03-12T11:46:26.082Z,13.05
2023-03-12T11:48:58.610Z,13.02
2023-03-12T11:51:31.166Z,13.11
2023-03-12T11:54:19.945Z,13.18
2023-03-12T11:56:53.946Z,13.28
2023-03-12T11:59:36.509Z,13.45
2023-03-12T12:02:18.589Z,13.27
2023-03-12T12:05:07.202Z,13.00
2023-03-12T12:07:46.045Z,12.48
2023-03-12T12:10:24.978Z,12.54
2023-03-12T12:13:23.744Z,12.72
2023-03-12T12:15:53.398Z,12.89
2023-03-12T12:18:42.835Z,12.96
2023-03-12T12:21:32.077Z,13.28
2023-03-12T12:24:26.701Z,13.62
2023-03-12T12:27:03.668Z,13.41
2023-03-12T12:29:53.734Z,13.36
2023-03-12T12:32:27.334Z,13.53
2023-03-12T12:35:23.515Z,13.64
2023-03-12T12:37:54.425Z,13.76
2023-03-12T12:40:21.954Z,13.78
2023-03-12T12:43:11.615Z,13.56
2023-03-12T12:45:39.720Z,13.30
2023-03-12T12:48:23.357Z,13.14
2023-03-12T12:50:52.145Z,13.26
2023-03-12T12:53:20.558Z,13.42
2023-03-12T12:55:50.510Z,13.91
2023-03-12T12:58:37.321Z,13.95
2023-03-12T13:01:04.386Z,14.08
2023-03-12T13:03:31.138Z,13.95
2023-03-12T13:06:03.337Z,14.01
2023-03-12T13:08:59.177Z,14.41
2023-03-12T13:11:31.595Z,14.68
2023-03-12T13:14:04.643Z,15.02
2023-03-12T13:16:36.482Z,14.89
2023-03-12T13:19:08.954Z,14.84
2023-03-12T13:21:40.701Z,14.79
2023-03-12T13:24:46.380Z,14.87
2023-03-12T13:27:25.910Z,15.11
2023-03-12T13:29:57.221Z,15.10
2023-03-12T13:32:37.693Z,14.77
2023-03-12T13:35:13.405Z,14.98
2023-03-12T13:37:46.238Z,14.11
2023-03-12T13:40:31.290Z,13.98
2023-03-12T13:43:16.421Z,13.95
2023-03-12T13:46:06.662Z,13.77
2023-03-12T13:48:35.031Z,13.93
2023-03-12T13:51:11.967Z,13.87
2023-03-12T13:53:40.586Z,13.53
2023-03-12T13:56:11.868Z,13.48
2023-03-12T13:58:54.282Z,13.25
2023-03-12T14:01:22.705Z,13.44
2023-03-12T14:03:53.576Z,13.83
2023-03-12T14:06:21.706Z,13.88
2023-03-12T14:09:06.858Z,13.66
2023-03-12T14:12:01.066Z,13.50
2023-03-12T14:14:48.032Z,14.05
2023-03-12T14:17:20.534Z,14.64
2023-03-12T14:19:50.883Z,14.65
2023-03-12T14:22:22.752Z,14.61
2023-03-12T14:24:58.936Z,14.51
2023-03-12T14:27:31.374Z,14.79
2023-03-12T14:30:11.554Z,14.97
2023-03-12T14:32:38.506Z,14.74
2023-03-12T14:35:18.203Z,14.23
2023-03-12T14:38:12.048Z,14.15
2023-03-12T14:40:46.789Z,14.34
2023-03-12T14:43:30.901Z,14.45
2023-03-12T14:46:00.505Z,14.57
2023-03-12T14:48:32.570Z,14.47
2023-03-12T14:51:00.740Z,14.23
2023-03-12T14:53:31.738Z,14.48
2023-03-12T14:56:29.192Z,15.17
2023-03-12T14:58:56.969Z,15.41
2023-03-12T15:01:27.039Z,15.41
2023-03-12T15:03:57.029Z,14.89
2023-03-12T15:06:29.727Z,14.29
2023-03-12T15:08:57.202Z,13.87
2023-03-12T15:11:25.990Z,13.59
2023-03-12T15:13:54.188Z,13.58
2023-03-12T15:16:21.237Z,13.62
2023-03-12T15:18:50.027Z,13.54
2023-03-12T15:21:17.017Z,13.58
2023-03-12T15:23:45.989Z,13.82
2023-03-12T15:26:12.500Z,14.74
2023-03-12T15:28:39.794Z,15.34
2023-03-12T15:31:13.884Z,15.51
2023-03-12T15:33:41.858Z,15.55
2023-03-12T15:36:14.948Z,15.45
2023-03-12T15:38:50.170Z,15.04
2023-03-12T15:41:21.426Z,14.51
2023-03-12T15:43:54.642Z,14.30
2023-03-12T15:46:22.107Z,14.69
2023-03-12T15:48:51.541Z,14.91
2023-03-12T15:51:35.874Z,14.94
2023-03-12T15:54:06.503Z,15.48
2023-03-12T15:56:34.851Z,15.92
2023-03-12T15:59:04.479Z,16.00
2023-03-12T16:01:44.759Z,16.21
2023-03-12T16:04:12.153Z,16.00
2023-03-12T16:06:38.994Z,15.62
2023-03-12T16:09:06.139Z,15.31
2023-03-12T16:11:35.105Z,14.82
2023-03-12T16:14:03.842Z,14.47
2023-03-12T16:16:30.814Z,14.44
2023-03-12T16:18:57.861Z,14.58
2023-03-12T16:21:24.659Z,14.69
2023-03-12T16:23:51.342Z,14.94
2023-03-12T16:26:18.196Z,14.90
2023-03-12T16:28:45.569Z,14.67
2023-03-12T16:31:13.503Z,14.51
2023-03-12T16:33:40.781Z,14.33
2023-03-12T16:36:15.810Z,14.18
2023-03-12T16:38:44.291Z,13.64
2023-03-12T16:41:16.897Z,13.26
2023-03-12T16:43:47.269Z,13.14
2023-03-12T16:46:19.593Z,13.10
2023-03-12T16:48:50.944Z,13.23
2023-03-12T16:51:17.632Z,13.14
2023-03-12T16:53:44.789Z,12.99
2023-03-12T16:56:20.656Z,12.76
2023-03-12T16:58:49.603Z,12.65
2023-03-12T17:01:19.152Z,12.56
2023-03-12T17:03:49.381Z,12.32
2023-03-12T17:06:18.613Z,12.07
2023-03-12T17:08:45.448Z,11.95
2023-03-12T17:11:15.133Z,11.86
2023-03-12T17:13:42.143Z,11.75
2023-03-12T17:16:11.624Z,11.66
2023-03-12T17:18:39.608Z,11.53
2023-03-12T17:21:07.022Z,11.41
2023-03-12T17:23:33.966Z,11.28
2023-03-12T17:26:00.677Z,11.13
2023-03-12T17:28:27.600Z,10.98
2023-03-12T17:30:54.255Z,10.90
2023-03-12T17:33:21.026Z,10.71
2023-03-12T17:35:56.971Z,10.54
2023-03-12T17:38:24.037Z,10.34
2023-03-12T17:40:50.648Z,10.11
2023-03-12T17:43:17.311Z,10.02
2023-03-12T17:45:43.984Z,9.82
2023-03-12T17:48:10.723Z,9.73
2023-03-12T17:50:37.509Z,9.65
2023-03-12T17:53:04.314Z,9.53
2023-03-12T17:55:31.010Z,9.44
2023-03-12T17:57:57.679Z,9.32
2023-03-12T18:00:24.382Z,9.25
2023-03-12T18:02:51.089Z,9.24
2023-03-12T18:05:17.952Z,9.22
2023-03-12T18:07:47.295Z,9.50
2023-03-12T18:10:14.118Z,9.74
2023-03-12T18:12:41.000Z,9.94
2023-03-12T18:15:10.923Z,10.11
2023-03-12T18:17:37.636Z,10.22
2023-03-12T18:20:09.890Z,10.34
2023-03-12T18:22:38.103Z,10.42
2023-03-12T18:25:05.694Z,10.51
2023-03-12T18:27:32.421Z,10.56
2023-03-12T18:29:59.058Z,10.62
2023-03-12T18:32:25.827Z,10.66
2023-03-12T18:34:53.289Z,10.70
2023-03-12T18:37:20.783Z,10.73
2023-03-12T18:39:48.027Z,10.75
2023-03-12T18:42:14.690Z,10.78
2023-03-12T18:44:41.329Z,10.80
2023-03-12T18:47:08.011Z,10.81
2023-03-12T18:49:34.698Z,10.82
2023-03-12T18:52:01.526Z,10.84
2023-03-12T18:54:28.421Z,10.85
2023-03-12T18:56:55.187Z,10.84
2023-03-12T18:59:21.872Z,10.86
2023-03-12T19:01:48.778Z,10.86
2023-03-12T19:04:20.008Z,10.87
2023-03-12T19:06:51.273Z,10.87
2023-03-12T19:09:18.925Z,10.87
2023-03-12T19:11:48.598Z,10.88
2023-03-12T19:14:15.496Z,10.87
2023-03-12T19:16:42.483Z,10.89
2023-03-12T19:19:09.233Z,10.89
2023-03-12T19:21:35.870Z,10.88
2023-03-12T19:24:02.608Z,10.90
2023-03-12T19:26:29.337Z,10.90
2023-03-12T19:28:56.074Z,10.91
2023-03-12T19:31:22.844Z,10.92
2023-03-12T19:33:49.642Z,10.92
2023-03-12T19:36:16.359Z,10.92
2023-03-12T19:38:43.201Z,10.92
2023-03-12T19:41:09.883Z,10.93
2023-03-12T19:43:37.253Z,10.93
2023-03-12T19:46:04.514Z,10.95
2023-03-12T19:48:31.430Z,10.96
2023-03-12T19:50:58.120Z,10.98
2023-03-12T19:53:24.991Z,10.98
2023-03-12T19:55:51.934Z,10.99
2023-03-12T19:58:18.775Z,11.00
2023-03-12T20:00:45.432Z,11.01
2023-03-12T20:03:12.177Z,11.01
2023-03-12T20:05:43.019Z,11.03
2023-03-12T20:08:11.150Z,11.05
2023-03-12T20:10:38.817Z,11.06
2023-03-12T20:13:05.650Z,11.06
2023-03-12T20:15:32.292Z,11.08
2023-03-12T20:17:59.093Z,11.09
2023-03-12T20:20:25.818Z,11.09
2023-03-12T20:22:52.549Z,11.11
2023-03-12T20:25:19.278Z,11.13
2023-03-12T20:27:47.126Z,11.14
2023-03-12T20:30:14.099Z,11.13
2023-03-12T20:32:42.607Z,11.15
2023-03-12T20:35:09.910Z,11.15
2023-03-12T20:37:36.657Z,11.14
2023-03-12T20:40:05.165Z,11.15
2023-03-12T20:42:31.745Z,11.16
2023-03-12T20:44:58.536Z,11.17
2023-03-12T20:47:25.259Z,11.17
2023-03-12T20:49:52.036Z,11.18
2023-03-12T20:52:18.751Z,11.18
2023-03-12T20:54:45.409Z,11.18
2023-03-12T20:57:12.263Z,11.18
2023-03-12T20:59:38.873Z,11.18
2023-03-12T21:02:05.593Z,11.18
2023-03-12T21:04:32.214Z,11.19
2023-03-12T21:06:58.859Z,11.20
2023-03-12T21:09:25.563Z,11.19
2023-03-12T21:11:52.293Z,11.19
2023-03-12T21:14:18.984Z,11.20
2023-03-12T21:16:45.771Z,11.21
2023-03-12T21:19:12.425Z,11.20
2023-03-12T21:21:39.146Z,11.21
2023-03-12T21:24:05.897Z,11.20
2023-03-12T21:26:32.528Z,11.19
2023-03-12T21:28:59.199Z,11.19
2023-03-12T21:31:28.713Z,11.19
2023-03-12T21:33:56.533Z,11.21
2023-03-12T21:36:23.732Z,11.20
2023-03-12T21:38:51.744Z,11.20
2023-03-12T21:41:19.277Z,11.21
2023-03-12T21:43:46.702Z,11.22
2023-03-12T21:46:15.664Z,11.21
2023-03-12T21:48:46.987Z,11.21
2023-03-12T21:51:15.946Z,11.21
2023-03-12T21:53:42.755Z,11.21
2023-03-12T21:56:10.139Z,11.20
2023-03-12T21:58:37.325Z,11.19
2023-03-12T22:01:08.942Z,11.20
2023-03-12T22:03:36.451Z,11.22
2023-03-12T22:06:03.521Z,11.22
2023-03-12T22:08:30.604Z,11.22
2023-03-12T22:10:57.555Z,11.23
2023-03-12T22:13:24.282Z,11.23
2023-03-12T22:15:56.210Z,11.27
2023-03-12T22:18:23.377Z,11.25
2023-03-12T22:21:01.583Z,11.28
2023-03-12T22:23:28.660Z,11.27
2023-03-12T22:25:55.773Z,11.29
2023-03-12T22:28:25.673Z,11.29
2023-03-12T22:31:00.043Z,11.30
2023-03-12T22:33:27.694Z,11.31
2023-03-12T22:35:54.879Z,11.30
2023-03-12T22:38:22.573Z,11.32
2023-03-12T22:40:49.506Z,11.33
2023-03-12T22:43:16.434Z,11.33
2023-03-12T22:45:43.181Z,11.34
2023-03-12T22:48:09.977Z,11.36
2023-03-12T22:50:36.604Z,11.36
2023-03-12T22:53:03.496Z,11.36
2023-03-12T22:55:30.208Z,11.36
2023-03-12T22:57:56.916Z,11.37
2023-03-12T23:00:23.905Z,11.37
2023-03-12T23:02:50.873Z,11.37
2023-03-12T23:05:17.626Z,11.38
2023-03-12T23:07:44.612Z,11.39
2023-03-12T23:10:11.665Z,11.39
2023-03-12T23:12:38.419Z,11.41
2023-03-12T23:15:06.295Z,11.42
2023-03-12T23:17:32.928Z,11.42
2023-03-12T23:19:59.592Z,11.43
2023-03-12T23:22:26.293Z,11.43
2023-03-12T23:24:53.271Z,11.43
2023-03-12T23:27:20.034Z,11.44
2023-03-12T23:29:46.733Z,11.43
2023-03-12T23:32:13.441Z,11.45
2023-03-12T23:34:40.058Z,11.46
2023-03-12T23:37:07.287Z,11.47
2023-03-12T23:39:42.160Z,11.48
2023-03-12T23:42:15.103Z,11.48
2023-03-12T23:44:41.725Z,11.48
2023-03-12T23:47:08.446Z,11.50
2023-03-12T23:49:35.180Z,11.51
2023-03-12T23:52:01.849Z,11.55
2023-03-12T23:54:28.495Z,11.57
2023-03-12T23:56:56.236Z,11.58
2023-03-12T23:59:22.803Z,11.58
